Beaver Islander — WT5906 — position and weather

sailwx.info

Track history (hours):
 
Tides and Currents Weather Stations Pressure Air Temp Water Temp Dewpoint Dewpoint Depression Visibility Wind Speed Wind Dir Waves Ship Positions

Beaver Islander

Owner: BEAVER ISLAND BOAT CO, CHARLEVOIX, MI. More information available from US FCC via Universal Licensing System and Coast Guard Vessel Documentation Center.

Last reported at 2016-Jul-23 23:33 UTC. Time now 2016-Jul-26 10:19 UTC.
Position N 45°44' W 085°29'.

Length 28 m; draft 3 m.

Type: Passenger vessel. MMSI: 366936060.

Date/timePositionNaut miles runAvg speedWind from/ knotsBaromVisibWave heightAir tempDewpointWater temp
2016-Jul-23 23:33N 45°44' W 085°29'1313.0
2016-Jul-23 22:33N 45°31' W 085°23'1313.0
2016-Jul-23 21:33N 45°19' W 085°16'0 0.4
2016-Jul-23 20:33N 45°19' W 085°15'1212.2
2016-Jul-23 19:33N 45°30' W 085°22'1313.1
2016-Jul-23 18:33N 45°43' W 085°28'1 1.2
2016-Jul-23 17:33N 45°44' W 085°29'1313.0
2016-Jul-23 16:33N 45°32' W 085°22'1313.1
2016-Jul-23 15:33N 45°19' W 085°16'0 0.2
2016-Jul-23 14:32N 45°19' W 085°16'1212.7
2016-Jul-23 13:34N 45°31' W 085°22'1313.1
2016-Jul-23 12:33N 45°43' W 085°29'2 2.4
2016-Jul-23 11:34N 45°45' W 085°31'2 0.2
2016-Jul-22 23:33N 45°43' W 085°29'1312.9
2016-Jul-22 22:33N 45°31' W 085°22'1312.9
2016-Jul-22 21:33N 45°19' W 085°16'0 0.1
2016-Jul-22 20:31N 45°19' W 085°16'1212.7
2016-Jul-22 19:33N 45°31' W 085°22'1313.2
2016-Jul-22 18:33N 45°43' W 085°29'1 1.0
2016-Jul-22 17:33N 45°44' W 085°29'1313.0
2016-Jul-22 16:33N 45°32' W 085°22'1313.1
2016-Jul-22 15:33N 45°19' W 085°16'1 0.5
2016-Jul-22 14:33N 45°19' W 085°15'1312.5
2016-Jul-22 13:33N 45°31' W 085°22'1313.1
2016-Jul-22 12:33N 45°43' W 085°29'2 2.1
2016-Jul-22 11:22N 45°45' W 085°31'  
2016-Jul-17 16:32N 45°45' W 085°31'0 0.0
2016-Jul-17 15:32N 45°45' W 085°31'2 0.1
2016-Jul-16 23:33N 45°43' W 085°29'1313.0
2016-Jul-16 22:33N 45°31' W 085°22'1312.9
2016-Jul-16 21:33N 45°19' W 085°16'0 0.3
2016-Jul-16 20:32N 45°19' W 085°15'1212.4
2016-Jul-16 19:33N 45°30' W 085°22'1313.3
2016-Jul-16 18:33N 45°43' W 085°29'0 0.5
2016-Jul-16 17:33N 45°42' W 085°28'1313.0
2016-Jul-16 16:33N 45°30' W 085°22'1212.0
2016-Jul-16 15:33N 45°19' W 085°15'0 0.4
2016-Jul-16 14:33N 45°19' W 085°16'1312.8
2016-Jul-16 13:33N 45°31' W 085°22'1313.0
2016-Jul-16 12:33N 45°43' W 085°29'2 1.9
2016-Jul-16 11:30N 45°45' W 085°31'2 0.1
2016-Jul-14 23:33N 45°44' W 085°29'1312.9
2016-Jul-14 22:33N 45°32' W 085°22'1313.0
2016-Jul-14 21:33N 45°19' W 085°16'0 0.5
2016-Jul-14 20:33N 45°19' W 085°15'1212.2
2016-Jul-14 19:33N 45°30' W 085°22'1313.2
2016-Jul-14 18:33N 45°43' W 085°28'3 2.6
2016-Jul-14 17:31N 45°45' W 085°31'  
Track history (hours):
 
Tides and Currents Weather Stations Pressure Air Temp Water Temp Dewpoint Dewpoint Depression Visibility Wind Speed Wind Dir Waves Ship Positions

Beaver Islander

Owner: BEAVER ISLAND BOAT CO, CHARLEVOIX, MI. More information available from US FCC via Universal Licensing System and Coast Guard Vessel Documentation Center.

Last reported at 2016-Jul-23 23:33 UTC. Time now 2016-Jul-26 10:19 UTC.
Position N 45°44' W 085°29'.

Length 28 m; draft 3 m.

Type: Passenger vessel. MMSI: 366936060.

Date/timePositionNaut miles runAvg speedWind from/ knotsBaromVisibWave heightAir tempDewpointWater temp
2016-Jul-23 23:33N 45°44' W 085°29'1313.0
2016-Jul-23 22:33N 45°31' W 085°23'1313.0
2016-Jul-23 21:33N 45°19' W 085°16'0 0.4
2016-Jul-23 20:33N 45°19' W 085°15'1212.2
2016-Jul-23 19:33N 45°30' W 085°22'1313.1
2016-Jul-23 18:33N 45°43' W 085°28'1 1.2
2016-Jul-23 17:33N 45°44' W 085°29'1313.0
2016-Jul-23 16:33N 45°32' W 085°22'1313.1
2016-Jul-23 15:33N 45°19' W 085°16'0 0.2
2016-Jul-23 14:32N 45°19' W 085°16'1212.7
2016-Jul-23 13:34N 45°31' W 085°22'1313.1
2016-Jul-23 12:33N 45°43' W 085°29'2 2.4
2016-Jul-23 11:34N 45°45' W 085°31'2 0.2
2016-Jul-22 23:33N 45°43' W 085°29'1312.9
2016-Jul-22 22:33N 45°31' W 085°22'1312.9
2016-Jul-22 21:33N 45°19' W 085°16'0 0.1
2016-Jul-22 20:31N 45°19' W 085°16'1212.7
2016-Jul-22 19:33N 45°31' W 085°22'1313.2
2016-Jul-22 18:33N 45°43' W 085°29'1 1.0
2016-Jul-22 17:33N 45°44' W 085°29'1313.0
2016-Jul-22 16:33N 45°32' W 085°22'1313.1
2016-Jul-22 15:33N 45°19' W 085°16'1 0.5
2016-Jul-22 14:33N 45°19' W 085°15'1312.5
2016-Jul-22 13:33N 45°31' W 085°22'1313.1
2016-Jul-22 12:33N 45°43' W 085°29'2 2.1
2016-Jul-22 11:22N 45°45' W 085°31'  
2016-Jul-17 16:32N 45°45' W 085°31'0 0.0
2016-Jul-17 15:32N 45°45' W 085°31'2 0.1
2016-Jul-16 23:33N 45°43' W 085°29'1313.0
2016-Jul-16 22:33N 45°31' W 085°22'1312.9
2016-Jul-16 21:33N 45°19' W 085°16'0 0.3
2016-Jul-16 20:32N 45°19' W 085°15'1212.4
2016-Jul-16 19:33N 45°30' W 085°22'1313.3
2016-Jul-16 18:33N 45°43' W 085°29'0 0.5
2016-Jul-16 17:33N 45°42' W 085°28'1313.0
2016-Jul-16 16:33N 45°30' W 085°22'1212.0
2016-Jul-16 15:33N 45°19' W 085°15'0 0.4
2016-Jul-16 14:33N 45°19' W 085°16'1312.8
2016-Jul-16 13:33N 45°31' W 085°22'1313.0
2016-Jul-16 12:33N 45°43' W 085°29'2 1.9
2016-Jul-16 11:30N 45°45' W 085°31'2 0.1
2016-Jul-14 23:33N 45°44' W 085°29'1312.9
2016-Jul-14 22:33N 45°32' W 085°22'1313.0
2016-Jul-14 21:33N 45°19' W 085°16'0 0.5
2016-Jul-14 20:33N 45°19' W 085°15'1212.2
2016-Jul-14 19:33N 45°30' W 085°22'1313.2
2016-Jul-14 18:33N 45°43' W 085°28'3 2.6
2016-Jul-14 17:31N 45°45' W 085°31'  

Dump ship's entire track history